createdAt,value
2018-03-24T00:01:30.131Z,50.22
2018-03-24T00:03:57.671Z,46.80
2018-03-24T00:06:25.243Z,45.75
2018-03-24T00:08:53.007Z,43.38
2018-03-24T00:11:20.558Z,45.80
2018-03-24T00:13:48.126Z,49.20
2018-03-24T00:16:15.673Z,44.88
2018-03-24T00:18:44.231Z,45.75
2018-03-24T00:21:11.871Z,45.47
2018-03-24T00:23:39.424Z,42.78
2018-03-24T00:26:06.981Z,45.22
2018-03-24T00:28:34.739Z,44.58
2018-03-24T00:31:02.307Z,41.83
2018-03-24T00:33:29.871Z,42.78
2018-03-24T00:35:57.435Z,40.20
2018-03-24T00:38:25.231Z,37.88
2018-03-24T00:40:52.767Z,38.35
2018-03-24T00:43:20.297Z,36.13
2018-03-24T00:45:47.851Z,39.83
2018-03-24T00:48:15.417Z,34.83
2018-03-24T00:50:42.985Z,33.33
2018-03-24T00:53:10.590Z,38.53
2018-03-24T00:55:38.116Z,40.70
2018-03-24T00:58:06.323Z,38.78
2018-03-24T01:00:33.918Z,42.40
2018-03-24T01:03:01.456Z,42.08
2018-03-24T01:05:29.083Z,46.33
2018-03-24T01:07:56.640Z,41.78
2018-03-24T01:10:24.190Z,41.30
2018-03-24T01:12:51.732Z,42.28
2018-03-24T01:15:19.279Z,44.42
2018-03-24T01:17:47.063Z,40.78
2018-03-24T01:20:14.844Z,40.38
2018-03-24T01:22:43.071Z,42.30
2018-03-24T01:25:10.659Z,40.95
2018-03-24T01:27:38.187Z,39.58
2018-03-24T01:30:06.274Z,42.20
2018-03-24T01:32:34.431Z,47.22
2018-03-24T01:35:02.026Z,47.78
2018-03-24T01:37:30.020Z,48.00
2018-03-24T01:39:57.562Z,42.03
2018-03-24T01:42:25.316Z,50.50
2018-03-24T01:44:53.093Z,44.25
2018-03-24T01:47:20.682Z,47.62
2018-03-24T01:49:48.206Z,47.38
2018-03-24T01:52:15.956Z,43.38
2018-03-24T01:54:43.507Z,38.58
2018-03-24T01:57:11.052Z,37.90
2018-03-24T01:59:38.816Z,37.35
2018-03-24T02:02:06.340Z,42.28
2018-03-24T02:04:33.859Z,41.05
2018-03-24T02:07:01.410Z,37.97
2018-03-24T02:09:28.948Z,37.35
2018-03-24T02:11:56.737Z,38.00
2018-03-24T02:14:25.861Z,36.55
2018-03-24T02:16:53.386Z,37.95
2018-03-24T02:19:20.927Z,36.95
2018-03-24T02:21:50.148Z,36.63
2018-03-24T02:24:17.694Z,33.45
2018-03-24T02:26:45.699Z,35.47
2018-03-24T02:29:13.918Z,30.60
2018-03-24T02:31:41.773Z,34.80
2018-03-24T02:34:09.300Z,31.42
2018-03-24T02:36:37.099Z,32.67
2018-03-24T02:39:04.660Z,30.35
2018-03-24T02:41:32.573Z,31.30
2018-03-24T02:44:00.763Z,29.83
2018-03-24T02:46:28.332Z,30.00
2018-03-24T02:48:56.119Z,28.60
2018-03-24T02:51:23.928Z,29.98
2018-03-24T02:53:51.495Z,28.33
2018-03-24T02:56:19.052Z,29.30
2018-03-24T02:58:46.583Z,30.12
2018-03-24T03:01:14.125Z,30.80
2018-03-24T03:03:41.896Z,31.02
2018-03-24T03:06:09.819Z,30.10
2018-03-24T03:08:37.356Z,30.08
2018-03-24T03:11:04.890Z,29.73
2018-03-24T03:13:32.682Z,33.08
2018-03-24T03:16:00.207Z,32.85
2018-03-24T03:18:27.743Z,30.10
2018-03-24T03:20:55.555Z,30.48
2018-03-24T03:23:23.127Z,32.88
2018-03-24T03:25:51.426Z,31.75
2018-03-24T03:28:21.280Z,29.45
2018-03-24T03:30:49.337Z,26.33
2018-03-24T03:33:16.913Z,28.85
2018-03-24T03:35:44.454Z,27.55
2018-03-24T03:38:12.298Z,24.33
2018-03-24T03:40:39.822Z,30.60
2018-03-24T03:43:07.691Z,26.77
2018-03-24T03:45:35.239Z,26.20
2018-03-24T03:48:02.774Z,26.70
2018-03-24T03:50:30.332Z,27.50
2018-03-24T03:52:57.880Z,30.15
2018-03-24T03:55:25.407Z,33.13
2018-03-24T03:57:52.932Z,29.80
2018-03-24T04:00:20.516Z,28.40
2018-03-24T04:02:48.044Z,29.67
2018-03-24T04:05:15.589Z,32.40
2018-03-24T04:07:43.113Z,32.70
2018-03-24T04:10:10.907Z,28.92
2018-03-24T04:12:38.473Z,31.12
2018-03-24T04:15:05.995Z,29.17
2018-03-24T04:17:33.656Z,33.17
2018-03-24T04:20:01.279Z,33.15
2018-03-24T04:22:28.804Z,31.37
2018-03-24T04:24:56.722Z,30.55
2018-03-24T04:27:24.271Z,32.90
2018-03-24T04:29:51.819Z,31.92
2018-03-24T04:32:19.348Z,31.45
2018-03-24T04:34:47.165Z,28.75
2018-03-24T04:37:14.740Z,29.80
2018-03-24T04:39:42.268Z,29.58
2018-03-24T04:42:09.839Z,29.67
2018-03-24T04:44:37.587Z,30.50
2018-03-24T04:47:05.128Z,31.10
2018-03-24T04:49:32.674Z,32.22
2018-03-24T04:52:00.435Z,34.15
2018-03-24T04:54:27.963Z,31.35
2018-03-24T04:56:56.475Z,32.95
2018-03-24T04:59:24.021Z,32.88
2018-03-24T05:01:51.552Z,31.95
2018-03-24T05:04:19.212Z,29.92
2018-03-24T05:06:46.865Z,30.00
2018-03-24T05:09:14.404Z,29.45
2018-03-24T05:11:42.159Z,29.52
2018-03-24T05:14:09.695Z,27.77
2018-03-24T05:16:37.256Z,28.62
2018-03-24T05:19:05.524Z,32.00
2018-03-24T05:21:33.058Z,31.02
2018-03-24T05:24:01.285Z,30.75
2018-03-24T05:26:28.884Z,32.53
2018-03-24T05:28:56.434Z,31.83
2018-03-24T05:31:24.283Z,31.48
2018-03-24T05:33:51.832Z,30.60
2018-03-24T05:36:19.357Z,30.62
2018-03-24T05:38:46.896Z,34.30
2018-03-24T05:41:14.419Z,31.65
2018-03-24T05:43:41.942Z,35.40
2018-03-24T05:46:09.882Z,34.95
2018-03-24T05:48:37.504Z,31.05
2018-03-24T05:51:05.207Z,30.42
2018-03-24T05:53:32.759Z,30.85
2018-03-24T05:56:00.786Z,30.00
2018-03-24T05:58:28.323Z,27.85
2018-03-24T06:00:55.848Z,31.05
2018-03-24T06:03:23.634Z,27.23
2018-03-24T06:05:51.484Z,31.42
2018-03-24T06:08:19.022Z,34.15
2018-03-24T06:10:46.581Z,32.47
2018-03-24T06:13:14.099Z,28.40
2018-03-24T06:15:41.618Z,31.02
2018-03-24T06:18:09.155Z,31.35
2018-03-24T06:20:37.226Z,30.15
2018-03-24T06:23:04.747Z,30.30
2018-03-24T06:25:32.267Z,30.83
2018-03-24T06:27:59.805Z,33.88
2018-03-24T06:30:27.324Z,34.58
2018-03-24T06:32:54.885Z,30.88
2018-03-24T06:35:22.435Z,27.13
2018-03-24T06:37:49.960Z,30.48
2018-03-24T06:40:17.497Z,31.90
2018-03-24T06:42:45.332Z,27.70
2018-03-24T06:45:13.068Z,30.12
2018-03-24T06:47:40.836Z,27.25
2018-03-24T06:50:09.097Z,29.73
2018-03-24T06:52:37.230Z,29.75
2018-03-24T06:55:04.799Z,29.27
2018-03-24T06:57:32.747Z,27.55
2018-03-24T07:00:00.331Z,29.15
2018-03-24T07:02:27.891Z,29.58
2018-03-24T07:04:55.432Z,27.50
2018-03-24T07:07:22.955Z,31.55
2018-03-24T07:09:50.503Z,32.55
2018-03-24T07:12:18.043Z,28.58
2018-03-24T07:14:45.808Z,27.50
2018-03-24T07:17:13.363Z,27.42
2018-03-24T07:19:40.880Z,30.52
2018-03-24T07:22:08.428Z,29.55
2018-03-24T07:24:35.968Z,28.62
2018-03-24T07:27:03.491Z,31.27
2018-03-24T07:29:31.031Z,29.75
2018-03-24T07:31:58.567Z,44.80
2018-03-24T07:34:26.095Z,34.72
2018-03-24T07:36:53.616Z,31.70
2018-03-24T07:39:21.173Z,30.33
2018-03-24T07:41:48.723Z,30.77
2018-03-24T07:44:16.248Z,30.83
2018-03-24T07:46:43.773Z,28.75
2018-03-24T07:49:11.338Z,29.37
2018-03-24T07:51:38.879Z,29.75
2018-03-24T07:54:06.518Z,31.85
2018-03-24T07:56:34.057Z,30.05
2018-03-24T07:59:01.580Z,31.95
2018-03-24T08:01:29.111Z,29.25
2018-03-24T08:03:56.916Z,29.77
2018-03-24T08:06:24.436Z,27.48
2018-03-24T08:08:51.967Z,28.23
2018-03-24T08:11:19.519Z,27.90
2018-03-24T08:13:47.038Z,28.85
2018-03-24T08:16:14.576Z,28.83
2018-03-24T08:18:42.098Z,31.08
2018-03-24T08:21:09.623Z,27.80
2018-03-24T08:23:37.147Z,31.05
2018-03-24T08:26:04.668Z,29.45
2018-03-24T08:28:32.229Z,30.80
2018-03-24T08:30:59.795Z,29.37
2018-03-24T08:33:27.319Z,29.37
2018-03-24T08:35:54.878Z,27.23
2018-03-24T08:38:22.478Z,29.77
2018-03-24T08:40:49.976Z,29.92
2018-03-24T08:43:17.490Z,35.08
2018-03-24T08:45:45.019Z,32.65
2018-03-24T08:48:12.538Z,32.22
2018-03-24T08:50:40.084Z,33.97
2018-03-24T08:53:07.607Z,34.05
2018-03-24T08:55:35.127Z,42.85
2018-03-24T08:58:02.696Z,41.85
2018-03-24T09:00:30.250Z,49.00
2018-03-24T09:02:58.676Z,44.95
2018-03-24T09:05:26.218Z,48.10
2018-03-24T09:07:53.751Z,50.17
2018-03-24T09:10:21.370Z,37.63
2018-03-24T09:12:48.927Z,34.33
2018-03-24T09:15:16.498Z,34.08
2018-03-24T09:17:44.087Z,35.65
2018-03-24T09:20:11.807Z,37.45
2018-03-24T09:22:39.359Z,36.40
2018-03-24T09:25:06.892Z,35.20
2018-03-24T09:27:34.414Z,32.00
2018-03-24T09:30:01.992Z,34.85
2018-03-24T09:32:29.553Z,30.52
2018-03-24T09:34:57.163Z,29.42
2018-03-24T09:37:24.670Z,31.30
2018-03-24T09:39:52.197Z,30.58
2018-03-24T09:42:20.724Z,32.63
2018-03-24T09:44:50.077Z,29.48
2018-03-24T09:47:23.585Z,34.38
2018-03-24T09:49:51.699Z,33.33
2018-03-24T09:52:19.239Z,34.53
2018-03-24T09:54:46.790Z,34.20
2018-03-24T09:57:14.320Z,31.95
2018-03-24T09:59:41.871Z,35.95
2018-03-24T10:02:09.430Z,30.33
2018-03-24T10:04:37.081Z,34.10
2018-03-24T10:07:04.616Z,34.25
2018-03-24T10:09:32.144Z,35.65
2018-03-24T10:11:59.689Z,35.47
2018-03-24T10:14:27.233Z,34.22
2018-03-24T10:16:54.763Z,33.38
2018-03-24T10:19:22.318Z,34.22
2018-03-24T10:24:54.691Z,38.50
2018-03-24T10:27:22.223Z,36.45
2018-03-24T10:29:49.810Z,42.10
2018-03-24T10:32:17.346Z,41.75
2018-03-24T10:34:44.894Z,46.47
2018-03-24T10:37:12.422Z,56.47
2018-03-24T10:39:39.952Z,68.30
2018-03-24T10:42:07.487Z,75.45
2018-03-24T10:44:35.024Z,52.30
2018-03-24T10:47:02.578Z,47.27
2018-03-24T10:49:30.151Z,47.83
2018-03-24T10:51:57.678Z,276.83
2018-03-24T10:54:25.259Z,250.50
2018-03-24T10:56:52.768Z,142.77
2018-03-24T10:59:20.290Z,136.77
2018-03-24T11:01:47.827Z,144.77
2018-03-24T11:04:15.388Z,130.63
2018-03-24T11:06:42.924Z,120.27
2018-03-24T11:09:10.455Z,101.20
2018-03-24T11:11:37.998Z,96.03
2018-03-24T11:14:05.515Z,86.20
2018-03-24T11:16:33.061Z,64.80
2018-03-24T11:19:00.612Z,54.23
2018-03-24T11:21:28.150Z,51.90
2018-03-24T11:23:55.671Z,56.20
2018-03-24T11:26:23.204Z,53.57
2018-03-24T11:28:50.740Z,48.47
2018-03-24T11:31:18.255Z,53.90
2018-03-24T11:33:45.787Z,48.17
2018-03-24T11:36:13.339Z,52.30
2018-03-24T11:38:40.883Z,54.50
2018-03-24T11:41:08.432Z,55.87
2018-03-24T11:43:35.998Z,47.07
2018-03-24T11:46:03.518Z,52.87
2018-03-24T11:48:32.180Z,52.47
2018-03-24T11:50:59.698Z,53.00
2018-03-24T11:53:39.216Z,57.23
2018-03-24T11:56:06.744Z,49.40
2018-03-24T11:58:34.268Z,52.73
2018-03-24T12:01:01.921Z,51.90
2018-03-24T12:03:29.483Z,51.00
2018-03-24T12:05:57.052Z,50.67
2018-03-24T12:08:24.595Z,52.17
2018-03-24T12:10:52.119Z,53.40
2018-03-24T12:13:19.663Z,52.30
2018-03-24T12:15:48.099Z,50.00
2018-03-24T12:18:15.629Z,53.13
2018-03-24T12:20:43.151Z,52.40
2018-03-24T12:23:10.675Z,51.67
2018-03-24T12:25:38.235Z,49.20
2018-03-24T12:28:05.755Z,48.90
2018-03-24T12:30:33.333Z,50.60
2018-03-24T12:33:01.671Z,46.43
2018-03-24T12:35:29.191Z,51.00
2018-03-24T12:37:56.738Z,49.90
2018-03-24T12:40:24.495Z,49.75
2018-03-24T12:42:52.660Z,49.40
2018-03-24T12:45:20.463Z,47.03
2018-03-24T12:47:48.011Z,45.80
2018-03-24T12:50:21.414Z,49.10
2018-03-24T12:52:48.952Z,49.77
2018-03-24T12:55:16.474Z,45.13
2018-03-24T12:57:44.003Z,49.40
2018-03-24T13:00:11.613Z,46.30
2018-03-24T13:02:39.188Z,47.60
2018-03-24T13:05:06.710Z,48.40
2018-03-24T13:07:34.279Z,47.03
2018-03-24T13:10:01.815Z,45.75
2018-03-24T13:12:29.351Z,45.83
2018-03-24T13:14:56.871Z,46.77
2018-03-24T13:17:24.408Z,45.63
2018-03-24T13:19:52.022Z,42.53
2018-03-24T13:22:19.562Z,44.95
2018-03-24T13:24:47.094Z,44.63
2018-03-24T13:27:14.683Z,47.40
2018-03-24T13:29:42.459Z,48.35
2018-03-24T13:32:09.983Z,42.83
2018-03-24T13:34:37.747Z,44.50
2018-03-24T13:37:05.271Z,42.40
2018-03-24T13:39:33.094Z,44.92
2018-03-24T13:42:00.646Z,45.45
2018-03-24T13:44:28.192Z,48.78
2018-03-24T13:46:56.051Z,49.95
2018-03-24T13:49:23.552Z,49.10
2018-03-24T13:51:51.125Z,53.22
2018-03-24T13:54:18.806Z,51.03
2018-03-24T13:56:46.481Z,46.20
2018-03-24T13:59:14.291Z,44.08
2018-03-24T14:01:41.836Z,47.38
2018-03-24T14:04:09.960Z,42.92
2018-03-24T14:06:38.200Z,45.30
2018-03-24T14:09:05.740Z,46.30
2018-03-24T14:11:33.271Z,50.00
2018-03-24T14:14:01.074Z,45.88
2018-03-24T14:16:28.951Z,50.25
2018-03-24T14:18:56.507Z,47.15
2018-03-24T14:21:24.030Z,45.22
2018-03-24T14:23:51.579Z,44.67
2018-03-24T14:26:19.131Z,48.45
2018-03-24T14:28:46.687Z,54.78
2018-03-24T14:31:14.228Z,55.40
2018-03-24T14:33:41.996Z,50.35
2018-03-24T14:36:09.577Z,52.72
2018-03-24T14:38:37.151Z,52.35
2018-03-24T14:41:04.672Z,50.88
2018-03-24T14:43:32.199Z,57.03
2018-03-24T14:45:59.740Z,56.22
2018-03-24T14:48:27.276Z,54.20
2018-03-24T14:50:54.794Z,58.40
2018-03-24T14:53:22.356Z,61.75
2018-03-24T14:55:49.890Z,56.03
2018-03-24T14:58:17.410Z,59.28
2018-03-24T15:00:44.959Z,65.40
2018-03-24T15:03:12.528Z,59.55
2018-03-24T15:05:40.080Z,61.50
2018-03-24T15:08:07.859Z,58.75
2018-03-24T15:10:35.398Z,61.45
2018-03-24T15:13:02.920Z,65.18
2018-03-24T15:15:30.455Z,69.93
2018-03-24T15:17:58.827Z,72.87
2018-03-24T15:20:26.386Z,61.90
2018-03-24T15:22:53.907Z,65.78
2018-03-24T15:25:21.436Z,66.60
2018-03-24T15:27:49.019Z,66.45
2018-03-24T15:30:28.594Z,64.82
2018-03-24T15:33:07.934Z,62.70
2018-03-24T15:35:35.553Z,60.85
2018-03-24T15:38:03.083Z,67.32
2018-03-24T15:40:30.615Z,73.00
2018-03-24T15:42:58.139Z,72.35
2018-03-24T15:45:25.714Z,88.65
2018-03-24T15:47:53.263Z,70.03
2018-03-24T15:50:20.785Z,74.25
2018-03-24T15:52:48.354Z,72.47
2018-03-24T15:55:15.895Z,69.20
2018-03-24T15:57:44.331Z,73.12
2018-03-24T16:00:12.166Z,68.62
2018-03-24T16:02:39.754Z,64.95
2018-03-24T16:05:07.287Z,69.07
2018-03-24T16:07:35.386Z,76.93
2018-03-24T16:10:03.187Z,74.37
2018-03-24T16:12:30.710Z,63.22
2018-03-24T16:14:58.226Z,59.53
2018-03-24T16:17:25.794Z,66.65
2018-03-24T16:19:53.324Z,66.72
2018-03-24T16:22:21.102Z,65.85
2018-03-24T16:24:48.918Z,65.57
2018-03-24T16:27:16.494Z,64.93
2018-03-24T16:29:44.027Z,66.07
2018-03-24T16:32:11.906Z,65.37
2018-03-24T16:34:39.435Z,66.30
2018-03-24T16:37:07.204Z,67.95
2018-03-24T16:39:34.830Z,66.90
2018-03-24T16:42:02.550Z,63.60
2018-03-24T16:44:30.109Z,68.82
2018-03-24T16:46:57.863Z,74.20
2018-03-24T16:49:25.395Z,68.20
2018-03-24T16:51:52.924Z,67.75
2018-03-24T16:54:20.506Z,67.82
2018-03-24T16:56:48.072Z,69.37
2018-03-24T16:59:15.608Z,78.60
2018-03-24T17:01:43.163Z,70.93
2018-03-24T17:04:11.741Z,77.30
2018-03-24T17:06:39.602Z,74.93
2018-03-24T17:09:07.422Z,68.22
2018-03-24T17:11:35.006Z,72.37
2018-03-24T17:14:02.537Z,66.85
2018-03-24T17:16:30.076Z,63.25
2018-03-24T17:18:57.597Z,65.90
2018-03-24T17:21:25.117Z,63.00
2018-03-24T17:23:52.643Z,61.10
2018-03-24T17:26:20.170Z,68.50
2018-03-24T17:28:48.664Z,67.82
2018-03-24T17:31:16.180Z,63.92
2018-03-24T17:33:43.731Z,66.25
2018-03-24T17:36:12.501Z,55.60
2018-03-24T17:38:40.076Z,65.15
2018-03-24T17:41:07.747Z,51.70
2018-03-24T17:43:35.504Z,55.45
2018-03-24T17:46:03.351Z,188.98
2018-03-24T17:48:31.143Z,51.72
2018-03-24T17:50:59.216Z,57.22
2018-03-24T17:53:27.056Z,57.38
2018-03-24T17:55:54.636Z,58.17
2018-03-24T17:58:22.899Z,59.25
2018-03-24T18:00:50.475Z,65.30
2018-03-24T18:03:18.035Z,64.43
2018-03-24T18:05:45.735Z,67.07
2018-03-24T18:08:13.604Z,63.03
2018-03-24T18:10:41.171Z,58.13
2018-03-24T18:13:08.993Z,59.42
2018-03-24T18:15:36.526Z,57.03
2018-03-24T18:18:04.487Z,67.05
2018-03-24T18:20:32.022Z,67.47
2018-03-24T18:22:59.634Z,75.43
2018-03-24T18:25:27.203Z,61.15
2018-03-24T18:27:54.978Z,65.70
2018-03-24T18:30:22.669Z,57.58
2018-03-24T18:32:50.530Z,73.43
2018-03-24T18:35:18.274Z,64.35
2018-03-24T18:37:45.803Z,62.42
2018-03-24T18:40:13.550Z,62.65
2018-03-24T18:42:41.111Z,56.08
2018-03-24T18:45:08.635Z,65.20
2018-03-24T18:47:36.195Z,63.63
2018-03-24T18:50:04.274Z,58.08
2018-03-24T18:52:31.815Z,62.42
2018-03-24T18:54:59.364Z,60.63
2018-03-24T18:57:26.916Z,48.20
2018-03-24T18:59:54.476Z,48.80
2018-03-24T19:02:22.341Z,48.85
2018-03-24T19:04:49.895Z,47.67
2018-03-24T19:07:17.447Z,39.58
2018-03-24T19:09:45.304Z,41.70
2018-03-24T19:12:12.964Z,45.25
2018-03-24T19:14:41.482Z,51.10
2018-03-24T19:17:09.306Z,50.65
2018-03-24T19:19:36.955Z,53.60
2018-03-24T19:22:04.553Z,49.33
2018-03-24T19:24:32.167Z,50.67
2018-03-24T19:27:00.855Z,52.95
2018-03-24T19:29:28.624Z,52.67
2018-03-24T19:31:56.166Z,54.42
2018-03-24T19:34:23.691Z,56.67
2018-03-24T19:36:51.214Z,54.78
2018-03-24T19:39:19.404Z,57.95
2018-03-24T19:41:46.964Z,57.42
2018-03-24T19:44:14.526Z,59.13
2018-03-24T19:46:42.062Z,56.03
2018-03-24T19:49:11.294Z,62.85
2018-03-24T19:51:39.059Z,64.95
2018-03-24T19:54:06.619Z,74.93
2018-03-24T19:56:34.691Z,60.95
2018-03-24T19:59:02.461Z,60.25
2018-03-24T20:01:30.687Z,55.75
2018-03-24T20:03:58.227Z,54.28
2018-03-24T20:06:25.752Z,63.20
2018-03-24T20:08:53.818Z,56.80
2018-03-24T20:11:22.095Z,54.72
2018-03-24T20:13:50.601Z,53.85
2018-03-24T20:16:19.320Z,54.20
2018-03-24T20:18:46.891Z,57.83
2018-03-24T20:21:14.666Z,58.17
2018-03-24T20:23:42.338Z,56.33
2018-03-24T20:26:10.907Z,53.97
2018-03-24T20:28:39.531Z,56.33
2018-03-24T20:31:07.078Z,51.30
2018-03-24T20:33:34.830Z,50.22
2018-03-24T20:36:02.377Z,63.45
2018-03-24T20:38:29.949Z,53.25
2018-03-24T20:40:57.642Z,53.10
2018-03-24T20:43:25.178Z,45.85
2018-03-24T20:45:52.691Z,52.83
2018-03-24T20:48:20.237Z,63.17
2018-03-24T20:50:47.772Z,62.22
2018-03-24T20:53:15.352Z,59.33
2018-03-24T20:55:42.881Z,61.90
2018-03-24T20:58:10.406Z,62.75
2018-03-24T21:00:37.979Z,75.95
2018-03-24T21:03:06.556Z,66.07
2018-03-24T21:05:34.371Z,67.75
2018-03-24T21:08:01.888Z,64.72
2018-03-24T21:10:29.456Z,67.40
2018-03-24T21:12:56.994Z,84.87
2018-03-24T21:15:24.528Z,77.62
2018-03-24T21:17:52.289Z,84.18
2018-03-24T21:20:19.837Z,82.03
2018-03-24T21:22:47.375Z,75.55
2018-03-24T21:25:14.905Z,86.50
2018-03-24T21:27:42.674Z,80.60
2018-03-24T21:30:10.585Z,74.50
2018-03-24T21:32:38.632Z,59.45
2018-03-24T21:35:06.323Z,62.47
2018-03-24T21:37:33.855Z,67.68
2018-03-24T21:40:01.609Z,74.68
2018-03-24T21:42:29.160Z,70.32
2018-03-24T21:44:56.960Z,71.57
2018-03-24T21:47:24.522Z,84.00
2018-03-24T21:49:52.041Z,89.57
2018-03-24T21:52:19.564Z,95.10
2018-03-24T21:54:47.362Z,96.82
2018-03-24T21:57:14.927Z,84.75
2018-03-24T21:59:42.467Z,79.97
2018-03-24T22:02:10.001Z,75.47
2018-03-24T22:04:37.532Z,54.55
2018-03-24T22:07:05.066Z,65.32
2018-03-24T22:09:32.644Z,67.28
2018-03-24T22:12:00.428Z,68.93
2018-03-24T22:14:28.315Z,67.62
2018-03-24T22:16:55.870Z,74.80
2018-03-24T22:19:23.437Z,61.58
2018-03-24T22:21:51.016Z,73.78
2018-03-24T22:24:18.586Z,51.55
2018-03-24T22:26:46.111Z,52.65
2018-03-24T22:29:13.940Z,56.08
2018-03-24T22:31:41.839Z,54.47
2018-03-24T22:34:09.363Z,52.70
2018-03-24T22:36:36.915Z,49.75
2018-03-24T22:39:04.458Z,55.38
2018-03-24T22:41:32.042Z,55.72
2018-03-24T22:43:59.574Z,56.53
2018-03-24T22:46:27.138Z,54.20
2018-03-24T22:48:54.661Z,52.80
2018-03-24T22:51:22.226Z,53.20
2018-03-24T22:53:49.825Z,53.03
2018-03-24T22:56:17.351Z,59.05
2018-03-24T22:58:44.901Z,52.15
2018-03-24T23:01:12.491Z,52.92
2018-03-24T23:03:40.391Z,50.20
2018-03-24T23:06:07.914Z,51.30
2018-03-24T23:08:35.486Z,51.20
2018-03-24T23:11:03.267Z,49.00
2018-03-24T23:13:30.791Z,52.30
2018-03-24T23:15:58.316Z,54.42
2018-03-24T23:18:25.863Z,60.63
2018-03-24T23:20:53.614Z,56.90
2018-03-24T23:23:21.159Z,57.42
2018-03-24T23:25:48.773Z,61.25
2018-03-24T23:28:16.312Z,60.45
2018-03-24T23:30:43.870Z,60.33
2018-03-24T23:33:11.403Z,57.00
2018-03-24T23:35:38.915Z,53.53
2018-03-24T23:38:06.440Z,54.58
2018-03-24T23:40:33.984Z,54.88
2018-03-24T23:43:01.510Z,56.97
2018-03-24T23:45:29.044Z,58.55
2018-03-24T23:47:56.885Z,54.63
2018-03-24T23:50:24.403Z,55.40
2018-03-24T23:52:51.923Z,54.45
2018-03-24T23:55:19.914Z,55.05
2018-03-24T23:57:47.435Z,51.37
